createdAt,value
2022-08-07T00:00:39.769Z,61.96
2022-08-07T00:03:08.618Z,62.06
2022-08-07T00:05:39.959Z,61.39
2022-08-07T00:08:09.663Z,61.75
2022-08-07T00:10:48.038Z,61.39
2022-08-07T00:13:26.665Z,61.69
2022-08-07T00:15:57.289Z,61.88
2022-08-07T00:18:27.711Z,61.72
2022-08-07T00:21:01.926Z,61.95
2022-08-07T00:23:31.591Z,61.73
2022-08-07T00:26:12.835Z,62.06
2022-08-07T00:28:56.445Z,62.31
2022-08-07T00:31:37.965Z,62.50
2022-08-07T00:34:09.421Z,62.21
2022-08-07T00:36:43.314Z,62.50
2022-08-07T00:39:16.491Z,61.68
2022-08-07T00:41:53.425Z,61.98
2022-08-07T00:44:31.336Z,61.89
2022-08-07T00:47:16.120Z,62.26
2022-08-07T00:50:21.325Z,61.98
2022-08-07T00:52:48.473Z,62.29
2022-08-07T00:55:17.498Z,62.21
2022-08-07T00:58:12.195Z,61.89
2022-08-07T01:00:39.539Z,62.14
2022-08-07T01:03:25.475Z,62.28
2022-08-07T01:06:08.803Z,62.25
2022-08-07T01:08:36.076Z,62.33
2022-08-07T01:12:23.798Z,62.84
2022-08-07T01:14:02.150Z,63.26
2022-08-07T01:16:30.373Z,63.28
2022-08-07T01:18:58.345Z,63.16
2022-08-07T01:21:26.277Z,63.67
2022-08-07T01:23:57.436Z,63.24
2022-08-07T01:26:28.142Z,64.01
2022-08-07T01:28:58.837Z,64.36
2022-08-07T01:31:41.639Z,64.62
2022-08-07T01:34:13.629Z,64.62
2022-08-07T01:36:44.087Z,64.04
2022-08-07T01:39:11.875Z,64.32
2022-08-07T01:42:07.371Z,64.07
2022-08-07T01:44:34.361Z,64.55
2022-08-07T01:47:14.651Z,64.28
2022-08-07T01:49:56.663Z,64.22
2022-08-07T01:52:26.615Z,64.39
2022-08-07T01:54:54.978Z,63.96
2022-08-07T01:57:28.577Z,63.81
2022-08-07T02:00:04.317Z,63.84
2022-08-07T02:03:11.699Z,63.75
2022-08-07T02:05:59.390Z,64.49
2022-08-07T02:08:33.658Z,64.58
2022-08-07T02:11:10.374Z,64.49
2022-08-07T02:13:56.533Z,63.98
2022-08-07T02:16:33.713Z,64.60
2022-08-07T02:20:07.817Z,64.88
2022-08-07T02:21:58.574Z,64.33
2022-08-07T02:24:29.401Z,65.70
2022-08-07T02:27:01.225Z,66.82
2022-08-07T02:29:29.451Z,68.88
2022-08-07T02:31:59.840Z,71.86
2022-08-07T02:34:31.094Z,66.09
2022-08-07T02:37:02.114Z,67.48
2022-08-07T02:40:11.880Z,73.14
2022-08-07T02:42:33.398Z,72.77
2022-08-07T02:45:07.608Z,75.83
2022-08-07T02:47:50.373Z,76.61
2022-08-07T02:50:21.075Z,78.47
2022-08-07T02:53:10.909Z,79.17
2022-08-07T02:56:03.251Z,79.74
2022-08-07T02:58:33.224Z,80.16
2022-08-07T03:01:10.380Z,81.54
2022-08-07T03:03:49.715Z,83.18
2022-08-07T03:06:25.833Z,83.35
2022-08-07T03:09:04.805Z,81.31
2022-08-07T03:11:38.362Z,84.21
2022-08-07T03:14:06.940Z,82.42
2022-08-07T03:16:34.828Z,84.33
2022-08-07T03:19:02.436Z,83.86
2022-08-07T03:21:33.051Z,81.68
2022-08-07T03:24:18.462Z,80.99
2022-08-07T03:26:58.056Z,83.53
2022-08-07T03:29:29.481Z,84.29
2022-08-07T03:32:00.741Z,82.20
2022-08-07T03:34:28.780Z,82.32
2022-08-07T03:36:59.809Z,79.46
2022-08-07T03:40:13.325Z,78.95
2022-08-07T03:42:35.704Z,79.65
2022-08-07T03:45:05.729Z,79.31
2022-08-07T03:47:57.300Z,79.87
2022-08-07T03:50:29.711Z,82.05
2022-08-07T03:52:58.836Z,82.56
2022-08-07T03:55:57.617Z,81.43
2022-08-07T03:59:06.751Z,79.19
2022-08-07T04:01:11.194Z,78.70
2022-08-07T04:03:53.735Z,77.03
2022-08-07T04:06:36.991Z,78.60
2022-08-07T04:09:15.655Z,77.33
2022-08-07T04:12:27.639Z,79.34
2022-08-07T04:14:38.625Z,80.77
2022-08-07T04:17:20.098Z,80.72
2022-08-07T04:19:51.885Z,79.58
2022-08-07T04:22:22.956Z,79.55
2022-08-07T04:24:50.560Z,79.90
2022-08-07T04:27:25.212Z,77.50
2022-08-07T04:30:01.365Z,74.76
2022-08-07T04:32:34.752Z,76.71
2022-08-07T04:35:07.051Z,77.64
2022-08-07T04:38:00.931Z,76.61
2022-08-07T04:40:29.819Z,76.38
2022-08-07T04:43:02.206Z,76.64
2022-08-07T04:46:00.740Z,78.28
2022-08-07T04:48:44.599Z,78.18
2022-08-07T04:51:27.221Z,78.50
2022-08-07T04:54:06.532Z,79.58
2022-08-07T04:58:11.698Z,78.79
2022-08-07T05:00:10.703Z,79.61
2022-08-07T05:02:38.019Z,79.93
2022-08-07T05:05:53.245Z,79.56
2022-08-07T05:08:12.588Z,78.78
2022-08-07T05:10:50.882Z,77.38
2022-08-07T05:14:52.091Z,79.00
2022-08-07T05:16:24.138Z,76.70
2022-08-07T05:18:57.893Z,77.58
2022-08-07T05:21:59.851Z,77.85
2022-08-07T05:24:24.606Z,77.57
2022-08-07T05:26:59.752Z,76.99
2022-08-07T05:29:38.822Z,77.05
2022-08-07T05:32:19.029Z,76.76
2022-08-07T05:34:49.735Z,76.40
2022-08-07T05:37:25.129Z,76.51
2022-08-07T05:40:13.455Z,75.98
2022-08-07T05:42:42.769Z,75.52
2022-08-07T05:45:46.751Z,76.30
2022-08-07T05:48:19.477Z,76.00
2022-08-07T05:51:01.386Z,76.23
2022-08-07T05:54:13.097Z,78.16
2022-08-07T05:56:19.015Z,75.46
2022-08-07T05:58:52.975Z,74.35
2022-08-07T06:01:35.678Z,74.45
2022-08-07T06:04:12.351Z,75.16
2022-08-07T06:06:56.471Z,75.05
2022-08-07T06:10:04.333Z,75.21
2022-08-07T06:12:37.530Z,72.91
2022-08-07T06:15:10.283Z,71.22
2022-08-07T06:17:53.751Z,72.09
2022-08-07T06:20:49.863Z,70.92
2022-08-07T06:24:38.657Z,71.36
2022-08-07T06:26:27.436Z,71.32
2022-08-07T06:29:07.587Z,69.67
2022-08-07T06:31:49.692Z,68.17
2022-08-07T06:34:23.503Z,68.44
2022-08-07T06:36:54.994Z,68.03
2022-08-07T06:40:16.831Z,68.95
2022-08-07T06:42:33.075Z,69.28
2022-08-07T06:45:07.367Z,69.60
2022-08-07T06:47:57.729Z,68.56
2022-08-07T06:50:31.804Z,69.17
2022-08-07T06:53:00.446Z,67.25
2022-08-07T06:55:53.989Z,68.57
2022-08-07T06:58:24.662Z,67.65
2022-08-07T07:01:03.860Z,65.52
2022-08-07T07:03:47.547Z,65.27
2022-08-07T07:06:26.592Z,66.61
2022-08-07T07:09:05.754Z,65.50
2022-08-07T07:14:45.454Z,63.91
2022-08-07T07:17:24.849Z,62.52
2022-08-07T07:20:18.764Z,60.07
2022-08-07T07:24:09.133Z,58.10
2022-08-07T07:29:57.050Z,54.40
2022-08-07T07:31:55.138Z,52.41
2022-08-07T07:37:45.418Z,52.01
2022-08-07T07:40:18.810Z,53.87
2022-08-07T07:42:54.105Z,52.61
2022-08-07T07:46:36.752Z,52.48
2022-08-07T07:48:41.521Z,51.92
2022-08-07T07:51:12.948Z,50.53
2022-08-07T07:56:32.456Z,52.04
2022-08-07T07:59:13.486Z,48.26
2022-08-07T08:02:01.929Z,48.06
2022-08-07T08:04:38.570Z,48.35
2022-08-07T08:07:09.030Z,47.73
2022-08-07T08:09:52.369Z,47.55
2022-08-07T08:12:51.097Z,46.69
2022-08-07T08:15:15.143Z,45.54
2022-08-07T08:17:57.270Z,44.00
2022-08-07T08:20:32.484Z,45.89
2022-08-07T08:23:00.811Z,42.54
2022-08-07T08:25:42.805Z,42.85
2022-08-07T08:28:37.813Z,42.48
2022-08-07T08:31:16.174Z,42.79
2022-08-07T08:33:49.777Z,41.19
2022-08-07T08:36:30.570Z,41.50
2022-08-07T08:39:02.771Z,41.63
2022-08-07T08:41:57.556Z,41.80
2022-08-07T08:44:44.675Z,41.84
2022-08-07T08:47:22.204Z,42.07
2022-08-07T08:50:05.669Z,41.93
2022-08-07T08:52:54.147Z,41.35
2022-08-07T08:55:53.236Z,40.42
2022-08-07T08:58:28.872Z,39.94
2022-08-07T09:01:15.329Z,39.24
2022-08-07T09:04:00.892Z,40.79
2022-08-07T09:06:37.448Z,40.99
2022-08-07T09:09:30.242Z,40.73
2022-08-07T09:12:31.431Z,40.21
2022-08-07T09:16:21.958Z,41.31
2022-08-07T09:18:36.636Z,42.22
2022-08-07T09:22:10.339Z,40.91
2022-08-07T09:24:59.329Z,40.46
2022-08-07T09:27:54.665Z,40.52
2022-08-07T09:30:36.332Z,41.23
2022-08-07T09:33:52.483Z,40.46
2022-08-07T09:36:33.574Z,40.62
2022-08-07T09:39:53.070Z,40.26
2022-08-07T09:42:33.617Z,40.86
2022-08-07T09:47:24.494Z,41.74
2022-08-07T09:48:29.617Z,41.14
2022-08-07T09:52:16.462Z,41.64
2022-08-07T09:54:08.286Z,41.16
2022-08-07T09:57:12.858Z,41.61
2022-08-07T10:00:01.934Z,42.60
2022-08-07T10:02:53.655Z,42.23
2022-08-07T10:05:59.714Z,41.24
2022-08-07T10:08:53.462Z,41.79
2022-08-07T10:12:01.331Z,42.26
2022-08-07T10:14:33.069Z,41.73
2022-08-07T10:17:18.305Z,41.30
2022-08-07T10:20:00.874Z,39.80
2022-08-07T10:22:43.127Z,40.98
2022-08-07T10:25:20.995Z,38.94
2022-08-07T10:28:12.678Z,38.21
2022-08-07T10:30:53.662Z,38.86
2022-08-07T10:34:14.507Z,38.08
2022-08-07T10:36:38.710Z,36.87
2022-08-07T10:39:42.088Z,37.59
2022-08-07T10:42:31.353Z,36.30
2022-08-07T10:45:03.674Z,36.61
2022-08-07T10:47:51.459Z,36.27
2022-08-07T10:50:26.112Z,36.23
2022-08-07T10:53:08.863Z,36.48
2022-08-07T10:55:50.778Z,36.57
2022-08-07T10:58:32.086Z,37.30
2022-08-07T11:01:17.608Z,37.21
2022-08-07T11:04:31.939Z,36.46
2022-08-07T11:07:56.117Z,37.23
2022-08-07T11:10:17.097Z,36.83
2022-08-07T11:13:02.044Z,36.45
2022-08-07T11:15:37.074Z,37.52
2022-08-07T11:18:17.771Z,37.05
2022-08-07T11:21:06.855Z,37.43
2022-08-07T11:23:50.540Z,38.26
2022-08-07T11:26:28.766Z,36.85
2022-08-07T11:29:13.102Z,37.38
2022-08-07T11:32:06.459Z,38.31
2022-08-07T11:34:45.253Z,37.94
2022-08-07T11:37:18.915Z,38.42
2022-08-07T11:40:03.429Z,39.05
2022-08-07T11:42:40.862Z,38.82
2022-08-07T11:45:53.118Z,38.57
2022-08-07T11:48:37.568Z,37.63
2022-08-07T11:51:41.671Z,36.83
2022-08-07T11:54:54.757Z,36.85
2022-08-07T11:57:59.551Z,37.36
2022-08-07T12:01:02.525Z,37.79
2022-08-07T12:03:46.430Z,36.96
2022-08-07T12:06:40.334Z,37.86
2022-08-07T12:09:24.925Z,39.25
2022-08-07T12:12:10.470Z,36.64
2022-08-07T12:14:55.371Z,37.02
2022-08-07T12:17:38.656Z,36.62
2022-08-07T12:20:19.991Z,36.51
2022-08-07T12:23:14.553Z,39.02
2022-08-07T12:26:03.066Z,40.47
2022-08-07T12:28:52.829Z,42.22
2022-08-07T12:32:02.018Z,43.62
2022-08-07T12:34:25.886Z,44.16
2022-08-07T12:36:56.497Z,44.49
2022-08-07T12:39:44.272Z,44.01
2022-08-07T12:42:27.160Z,44.76
2022-08-07T12:44:58.569Z,44.05
2022-08-07T12:47:46.042Z,42.94
2022-08-07T12:50:34.268Z,42.63
2022-08-07T12:54:02.819Z,42.06
2022-08-07T12:56:28.139Z,42.36
2022-08-07T12:58:56.950Z,42.21
2022-08-07T13:01:38.838Z,41.85
2022-08-07T13:04:34.253Z,41.35
2022-08-07T13:08:12.379Z,43.30
2022-08-07T13:10:51.620Z,42.95
2022-08-07T13:13:48.579Z,43.14
2022-08-07T13:16:36.623Z,44.21
2022-08-07T13:19:18.175Z,43.35
2022-08-07T13:22:00.603Z,43.11
2022-08-07T13:24:54.025Z,43.08
2022-08-07T13:28:11.617Z,42.50
2022-08-07T13:30:41.446Z,43.34
2022-08-07T13:34:32.595Z,43.77
2022-08-07T13:36:28.324Z,43.91
2022-08-07T13:39:01.869Z,43.74
2022-08-07T13:41:41.301Z,42.76
2022-08-07T13:44:13.027Z,43.40
2022-08-07T13:46:49.560Z,43.44
2022-08-07T13:50:35.744Z,42.44
2022-08-07T13:52:30.501Z,41.12
2022-08-07T13:55:26.700Z,39.62
2022-08-07T13:58:06.108Z,39.01
2022-08-07T14:00:50.511Z,38.17
2022-08-07T14:03:29.022Z,37.94
2022-08-07T14:05:57.382Z,37.06
2022-08-07T14:08:28.194Z,36.59
2022-08-07T14:11:14.344Z,36.39
2022-08-07T14:13:54.144Z,38.41
2022-08-07T14:16:27.285Z,39.35
2022-08-07T14:19:06.156Z,39.19
2022-08-07T14:22:04.222Z,39.73
2022-08-07T14:24:48.448Z,39.91
2022-08-07T14:28:10.608Z,40.11
2022-08-07T14:30:12.667Z,40.42
2022-08-07T14:32:43.092Z,40.67
2022-08-07T14:35:43.359Z,40.40
2022-08-07T14:38:26.665Z,40.17
2022-08-07T14:41:04.289Z,39.87
2022-08-07T14:43:57.455Z,40.14
2022-08-07T14:46:35.822Z,40.32
2022-08-07T14:49:17.252Z,40.13
2022-08-07T14:52:03.820Z,40.07
2022-08-07T14:54:42.919Z,40.08
2022-08-07T14:57:11.640Z,39.55
2022-08-07T15:00:05.353Z,39.33
2022-08-07T15:02:39.069Z,39.42
2022-08-07T15:05:20.033Z,39.60
2022-08-07T15:07:54.826Z,39.60
2022-08-07T15:10:29.898Z,39.03
2022-08-07T15:13:11.626Z,38.42
2022-08-07T15:15:42.813Z,38.68
2022-08-07T15:18:28.478Z,38.33
2022-08-07T15:25:15.717Z,38.00
2022-08-07T15:27:05.670Z,37.49
2022-08-07T15:30:10.333Z,37.84
2022-08-07T15:32:51.064Z,37.97
2022-08-07T15:38:30.011Z,37.53
2022-08-07T15:44:03.212Z,37.08
2022-08-07T15:46:38.601Z,37.12
2022-08-07T15:52:13.652Z,36.90
2022-08-07T15:54:42.806Z,36.99
2022-08-07T15:57:39.603Z,37.37
2022-08-07T16:00:31.469Z,37.45
2022-08-07T16:03:01.768Z,37.62
2022-08-07T16:05:36.945Z,37.17
2022-08-07T16:08:32.501Z,37.46
2022-08-07T16:11:27.049Z,37.84
2022-08-07T16:14:11.773Z,37.69
2022-08-07T16:16:57.192Z,38.31
2022-08-07T16:19:42.949Z,38.78
2022-08-07T16:22:37.911Z,38.99
2022-08-07T16:25:23.299Z,40.11
2022-08-07T16:30:06.977Z,38.96
2022-08-07T16:31:02.671Z,38.40
2022-08-07T16:34:01.472Z,38.40
2022-08-07T16:37:02.820Z,38.57
2022-08-07T16:40:05.583Z,39.14
2022-08-07T16:42:36.785Z,39.24
2022-08-07T16:46:21.140Z,38.85
2022-08-07T16:48:37.669Z,39.15
2022-08-07T16:52:01.789Z,39.50
2022-08-07T16:54:32.765Z,39.75
2022-08-07T16:57:15.409Z,40.76
2022-08-07T16:59:52.049Z,40.77
2022-08-07T17:03:04.942Z,40.51
2022-08-07T17:06:26.602Z,41.47
2022-08-07T17:09:04.354Z,41.69
2022-08-07T17:12:01.311Z,42.53
2022-08-07T17:14:41.195Z,41.94
2022-08-07T17:17:45.886Z,43.49
2022-08-07T17:20:20.672Z,43.45
2022-08-07T17:23:00.269Z,42.95
2022-08-07T17:25:51.336Z,43.00
2022-08-07T17:28:24.663Z,42.84
2022-08-07T17:31:18.076Z,43.43
2022-08-07T17:34:17.938Z,46.13
2022-08-07T17:36:59.765Z,47.83
2022-08-07T17:40:05.550Z,49.06
2022-08-07T17:42:36.321Z,49.83
2022-08-07T17:45:40.025Z,49.75
2022-08-07T17:48:30.875Z,50.02
2022-08-07T17:51:21.670Z,49.88
2022-08-07T17:54:13.417Z,50.43
2022-08-07T17:57:19.024Z,50.53
2022-08-07T17:59:58.194Z,50.58
2022-08-07T18:02:56.383Z,52.46
2022-08-07T18:06:02.910Z,53.23
2022-08-07T18:09:01.121Z,54.65
2022-08-07T18:12:17.773Z,56.85
2022-08-07T18:15:08.753Z,57.59
2022-08-07T18:18:46.422Z,56.73
2022-08-07T18:21:07.007Z,56.53
2022-08-07T18:23:43.611Z,58.23
2022-08-07T18:26:40.697Z,58.42
2022-08-07T18:30:07.623Z,58.74
2022-08-07T18:32:28.331Z,58.58
2022-08-07T18:35:19.333Z,59.18
2022-08-07T18:38:57.455Z,59.29
2022-08-07T18:40:56.180Z,59.26
2022-08-07T18:43:49.093Z,59.55
2022-08-07T18:46:27.531Z,58.97
2022-08-07T18:50:32.402Z,59.13
2022-08-07T18:52:25.647Z,60.24
2022-08-07T18:54:56.370Z,60.20
2022-08-07T18:57:44.633Z,60.30
2022-08-07T19:03:59.051Z,60.38
2022-08-07T19:06:48.191Z,60.66
2022-08-07T19:09:55.614Z,60.68
2022-08-07T19:16:05.526Z,61.42
2022-08-07T19:19:02.659Z,61.58
2022-08-07T19:22:04.320Z,61.59
2022-08-07T19:24:54.417Z,61.69
2022-08-07T19:28:57.147Z,61.62
2022-08-07T19:31:03.180Z,61.55
2022-08-07T19:33:39.203Z,60.20
2022-08-07T19:36:36.180Z,59.60
2022-08-07T19:39:09.154Z,59.92
2022-08-07T19:44:48.753Z,60.39
2022-08-07T19:47:36.492Z,60.53
2022-08-07T19:50:43.847Z,60.73
2022-08-07T19:54:34.120Z,61.22
2022-08-07T19:58:02.406Z,61.88
2022-08-07T19:59:42.771Z,62.06
2022-08-07T20:02:30.888Z,62.37
2022-08-07T20:05:19.865Z,62.53
2022-08-07T20:10:55.640Z,62.22
2022-08-07T20:13:42.298Z,62.62
2022-08-07T20:16:35.910Z,62.97
2022-08-07T20:19:15.256Z,63.53
2022-08-07T20:22:10.382Z,64.39
2022-08-07T20:25:01.148Z,66.05
2022-08-07T20:27:46.567Z,66.55
2022-08-07T20:30:36.068Z,67.49
2022-08-07T20:33:36.625Z,67.19
2022-08-07T20:36:13.344Z,67.83
2022-08-07T20:39:00.823Z,68.34
2022-08-07T20:44:49.586Z,68.09
2022-08-07T20:47:56.330Z,67.83
2022-08-07T20:50:40.883Z,68.52
2022-08-07T20:53:25.916Z,68.32
2022-08-07T20:56:26.989Z,69.39
2022-08-07T21:00:05.419Z,69.50
2022-08-07T21:02:30.864Z,69.45
2022-08-07T21:05:16.228Z,69.47
2022-08-07T21:07:49.656Z,69.52
2022-08-07T21:10:25.244Z,69.38
2022-08-07T21:13:11.050Z,69.43
2022-08-07T21:16:00.673Z,69.93
2022-08-07T21:18:41.297Z,69.78
2022-08-07T21:21:49.149Z,70.58
2022-08-07T21:24:48.021Z,70.09
2022-08-07T21:27:39.873Z,70.04
2022-08-07T21:30:36.915Z,70.74
2022-08-07T21:33:41.410Z,70.58
2022-08-07T21:36:31.819Z,71.57
2022-08-07T21:39:46.260Z,71.70
2022-08-07T21:42:42.204Z,72.28
2022-08-07T21:46:05.331Z,73.38
2022-08-07T21:48:55.782Z,73.54
2022-08-07T21:51:32.362Z,74.10
2022-08-07T21:54:26.399Z,74.99
2022-08-07T21:57:16.087Z,75.40
2022-08-07T22:00:08.956Z,75.79
2022-08-07T22:02:50.990Z,76.44
2022-08-07T22:05:45.841Z,76.66
2022-08-07T22:08:18.883Z,77.05
2022-08-07T22:11:05.867Z,76.96
2022-08-07T22:13:51.964Z,76.91
2022-08-07T22:16:46.806Z,77.03
2022-08-07T22:19:30.088Z,76.44
2022-08-07T22:22:21.152Z,77.14
2022-08-07T22:25:12.777Z,77.67
2022-08-07T22:28:07.651Z,77.55
2022-08-07T22:31:05.104Z,77.79
2022-08-07T22:33:57.038Z,78.07
2022-08-07T22:36:56.163Z,77.42
2022-08-07T22:39:53.057Z,76.76
2022-08-07T22:42:33.301Z,77.04
2022-08-07T22:45:11.104Z,77.16
2022-08-07T22:54:14.976Z,77.48
2022-08-07T22:56:58.651Z,77.38
2022-08-07T22:59:43.061Z,77.28
2022-08-07T23:02:33.851Z,77.57
2022-08-07T23:06:09.037Z,77.96
2022-08-07T23:08:54.296Z,76.98
2022-08-07T23:14:25.045Z,76.96
2022-08-07T23:17:15.884Z,75.98
2022-08-07T23:20:11.751Z,75.44
2022-08-07T23:23:02.415Z,75.54
2022-08-07T23:28:29.448Z,75.45
2022-08-07T23:31:42.562Z,75.10
2022-08-07T23:37:20.449Z,73.77
2022-08-07T23:40:09.365Z,73.17
2022-08-07T23:46:10.948Z,72.42
2022-08-07T23:49:15.481Z,72.26
2022-08-07T23:52:59.617Z,70.60
2022-08-07T23:55:53.601Z,70.60
2022-08-07T23:58:55.516Z,69.89
